Wales Center, New York
Current Conditions -  °F | °C
As of 8:54 PM on Friday 19 Dec 2014 (Local Time) from KBUF Reporting Station
Overcast Overcast  
Wind Chill: 21°   Ceiling: 2400
Heat Index: 29°   Visibility: 10mi
Dew Point: 21°   Wind: 8mph
Humidity: 72%   Direction: 270°W
Pressure: 30.24"   Gusts: NA
Location:  42.77°N, 78.53°W
Report Text: KBUF 200154Z 27007KT 10SM OVC024 M02/M06 A3024 RMK AO2 SLP252 T10171061
Loading
Personal Weather Stations






























Interactive Weather Map New forecast layout! Learn more

10-Day Weather Forecast

Advertisements
Track Severe Weather on mobile